Time;durP1;ratioP1;P1;durP2;ratioP2;P2;SDS_P1;SDS_P2;PMS_P1;PMS_P2;Temp;Humidity;BMP_temperature;BMP_pressure;BME280_temperature;BME280_humidity;BME280_pressure;Samples;Min_cycle;Max_cycle;Signal;HPM_P1;HPM_P2
2021/03/27 00:02:27;;;;;;;7.17;6.20;;;11.00;99.90;;;;;;5049259;28;20445;-91
2021/03/27 00:05:05;;;;;;;7.70;4.60;;;11.00;99.90;;;;;;5051733;28;20450;-88
2021/03/27 00:07:36;;;;;;;11.03;6.00;;;10.90;99.90;;;;;;5053788;28;20451;-86
2021/03/27 00:10:18;;;;;;;7.70;6.37;;;10.90;99.90;;;;;;5050234;28;20787;-88
2021/03/27 00:12:47;;;;;;;6.87;4.40;;;10.90;99.90;;;;;;5052948;28;20454;-89
2021/03/27 00:15:21;;;;;;;4.27;3.30;;;10.80;99.90;;;;;;5048727;28;20469;-91
2021/03/27 00:17:52;;;;;;;7.53;5.10;;;10.90;99.90;;;;;;5055004;28;20455;-88
2021/03/27 00:20:23;;;;;;;2.50;2.30;;;10.80;99.90;;;;;;5059234;28;20496;-89
2021/03/27 00:22:54;;;;;;;3.90;2.97;;;10.80;99.90;;;;;;5059158;28;20462;-91
2021/03/27 00:25:24;;;;;;;5.50;4.30;;;11.50;99.90;;;;;;5057894;28;20450;-84
2021/03/27 00:27:59;;;;;;;5.30;3.50;;;10.80;99.90;;;;;;5055203;28;21056;-84
2021/03/27 00:30:32;;;;;;;5.50;4.40;;;10.70;99.90;;;;;;5057968;28;20784;-84
2021/03/27 00:33:00;;;;;;;2.50;1.63;;;10.70;99.90;;;;;;5052885;28;20477;-90
2021/03/27 00:35:30;;;;;;;3.60;3.30;;;10.70;99.90;;;;;;5050307;28;20451;-89
2021/03/27 00:38:00;;;;;;;5.50;4.20;;;10.60;99.90;;;;;;5050486;28;20446;-85
2021/03/27 00:40:30;;;;;;;4.97;3.60;;;10.60;99.90;;;;;;5051249;28;20543;-93
2021/03/27 00:43:02;;;;;;;5.00;4.50;;;10.60;99.90;;;;;;5055308;28;20520;-95
2021/03/27 00:45:38;;;;;;;5.47;3.97;;;10.50;99.90;;;;;;5056323;28;20438;-88
2021/03/27 00:48:08;;;;;;;4.37;3.10;;;10.40;99.90;;;;;;5056269;28;20933;-84
2021/03/27 00:50:40;;;;;;;5.90;4.57;;;10.40;99.90;;;;;;5055020;28;20454;-90
2021/03/27 00:53:12;;;;;;;4.67;3.10;;;10.40;99.90;;;;;;5056744;28;20450;-84
2021/03/27 00:55:53;;;;;;;3.47;2.90;;;10.40;99.90;;;;;;5055117;28;20458;-84
2021/03/27 00:58:26;;;;;;;5.23;4.20;;;10.40;99.90;;;;;;5054097;28;20523;-90
2021/03/27 01:00:59;;;;;;;2.50;2.27;;;10.40;99.90;;;;;;5049330;28;20490;-84
2021/03/27 01:03:32;;;;;;;5.57;4.20;;;10.30;99.90;;;;;;5055136;28;20500;-86
2021/03/27 01:05:59;;;;;;;8.23;4.40;;;10.20;99.90;;;;;;5049965;28;20450;-90
2021/03/27 01:08:26;;;;;;;4.80;4.20;;;10.20;99.90;;;;;;5055454;28;20442;-85
2021/03/27 01:10:56;;;;;;;6.20;5.00;;;10.20;99.90;;;;;;5055111;28;20450;-86
2021/03/27 01:13:28;;;;;;;4.50;4.10;;;10.10;99.90;;;;;;5054294;28;20835;-90
2021/03/27 01:15:58;;;;;;;5.30;4.27;;;9.90;99.90;;;;;;5055033;28;20446;-92
2021/03/27 01:18:30;;;;;;;5.97;4.43;;;9.70;99.90;;;;;;5052107;28;20450;-85
2021/03/27 01:20:59;;;;;;;3.70;3.27;;;9.70;99.90;;;;;;5055270;28;20489;-84
2021/03/27 01:23:26;;;;;;;6.13;4.60;;;9.70;99.90;;;;;;5052400;28;20817;-85
2021/03/27 01:25:58;;;;;;;5.27;4.77;;;9.60;99.90;;;;;;5050898;28;20816;-92
2021/03/27 01:28:29;;;;;;;6.03;5.43;;;9.60;99.90;;;;;;5050888;28;20450;-84
2021/03/27 01:31:05;;;;;;;4.43;3.43;;;9.50;99.90;;;;;;5055086;28;20450;-93
2021/03/27 01:33:36;;;;;;;6.70;3.27;;;9.50;99.90;;;;;;5052274;28;20508;-84
2021/03/27 01:36:10;;;;;;;4.30;3.27;;;9.50;99.90;;;;;;5049296;28;20451;-84
2021/03/27 01:38:40;;;;;;;4.80;3.97;;;9.50;99.90;;;;;;5051745;28;20520;-85
2021/03/27 01:41:18;;;;;;;4.23;3.80;;;9.50;99.90;;;;;;5055153;28;20490;-85
2021/03/27 01:44:00;;;;;;;4.03;3.50;;;9.50;99.90;;;;;;5054300;28;20460;-86
2021/03/27 01:46:52;;;;;;;7.93;4.73;;;9.40;99.90;;;;;;5056042;28;20442;-85
2021/03/27 01:49:29;;;;;;;5.30;4.60;;;9.40;99.90;;;;;;5050834;28;20454;-86
2021/03/27 01:52:03;;;;;;;6.07;5.10;;;9.30;99.90;;;;;;5056106;28;20446;-86
2021/03/27 01:54:35;;;;;;;4.97;4.43;;;9.30;99.90;;;;;;5056815;28;20476;-85
2021/03/27 01:57:16;;;;;;;5.47;4.57;;;9.30;99.90;;;;;;5057717;28;20477;-84
2021/03/27 01:59:47;;;;;;;5.00;4.50;;;9.30;99.90;;;;;;5056250;28;21007;-85
2021/03/27 02:02:20;;;;;;;4.87;4.33;;;9.20;99.90;;;;;;5053619;28;20466;-84
2021/03/27 02:04:52;;;;;;;6.20;4.80;;;9.20;99.90;;;;;;5057781;28;20447;-87
2021/03/27 02:07:28;;;;;;;6.30;5.10;;;9.10;99.90;;;;;;5058302;28;20508;-85
2021/03/27 02:09:59;;;;;;;6.40;5.40;;;9.00;99.90;;;;;;5059224;28;20454;-84
2021/03/27 02:12:45;;;;;;;6.10;5.10;;;9.00;99.90;;;;;;5056255;28;20454;-85
2021/03/27 02:15:16;;;;;;;7.20;5.33;;;8.90;99.90;;;;;;5058820;28;20461;-85
2021/03/27 02:17:50;;;;;;;7.20;4.57;;;8.90;99.90;;;;;;5058245;28;20937;-85
2021/03/27 02:20:50;;;;;;;6.97;5.40;;;8.90;99.90;;;;;;5053192;28;20906;-86
2021/03/27 02:23:23;;;;;;;10.40;5.47;;;8.80;99.90;;;;;;5055212;28;20449;-87
2021/03/27 02:26:09;;;;;;;7.23;5.30;;;8.80;99.90;;;;;;5054697;28;20442;-87
2021/03/27 02:29:01;;;;;;;8.63;6.20;;;8.70;99.90;;;;;;5046074;28;20804;-85
2021/03/27 02:31:37;;;;;;;6.57;4.90;;;8.70;99.90;;;;;;5053897;28;20497;-86
2021/03/27 02:34:11;;;;;;;6.73;5.37;;;8.70;99.90;;;;;;5053730;28;20446;-86
2021/03/27 02:36:48;;;;;;;6.77;5.13;;;8.70;99.90;;;;;;5053886;28;20799;-86
2021/03/27 02:39:19;;;;;;;7.37;5.90;;;8.70;99.90;;;;;;5050525;28;20513;-91
2021/03/27 02:42:08;;;;;;;6.63;3.43;;;8.70;99.90;;;;;;5048933;28;20539;-90
2021/03/27 02:44:39;;;;;;;6.30;4.93;;;8.70;99.90;;;;;;5052564;28;20497;-85
2021/03/27 02:47:33;;;;;;;5.77;4.53;;;8.70;99.90;;;;;;5050331;28;20497;-86
2021/03/27 02:50:14;;;;;;;7.23;5.03;;;8.70;99.90;;;;;;5053457;28;20971;-87
2021/03/27 02:52:56;;;;;;;6.57;5.70;;;8.60;99.90;;;;;;5051459;28;20547;-85
2021/03/27 02:55:28;;;;;;;8.23;6.20;;;8.60;99.90;;;;;;5053568;28;20442;-85
2021/03/27 02:58:04;;;;;;;5.57;4.40;;;8.60;99.90;;;;;;5052079;28;20979;-89
2021/03/27 03:00:41;;;;;;;5.87;5.27;;;8.60;99.90;;;;;;5053539;28;20458;-85
2021/03/27 03:03:15;;;;;;;5.13;4.40;;;8.50;99.90;;;;;;5050184;28;20495;-93
2021/03/27 03:05:47;;;;;;;5.97;3.63;;;8.50;99.90;;;;;;5049500;28;20451;-85
2021/03/27 03:08:22;;;;;;;7.13;5.90;;;8.50;99.90;;;;;;5048651;28;20446;-86
2021/03/27 03:10:54;;;;;;;4.10;3.30;;;8.50;99.90;;;;;;5053476;28;20996;-86
2021/03/27 03:13:29;;;;;;;7.53;5.10;;;8.50;99.90;;;;;;5051988;28;20446;-85
2021/03/27 03:16:02;;;;;;;6.30;4.60;;;8.50;99.90;;;;;;5053325;28;20446;-90
2021/03/27 03:18:37;;;;;;;8.20;4.70;;;8.50;99.90;;;;;;5050821;28;20995;-88
2021/03/27 03:21:11;;;;;;;1.70;1.37;;;8.40;99.90;;;;;;5050682;28;20451;-94
2021/03/27 03:23:48;;;;;;;3.67;3.03;;;8.40;99.90;;;;;;5053261;28;20450;-91
2021/03/27 03:26:28;;;;;;;5.80;4.80;;;8.40;99.90;;;;;;5047900;28;20449;-85
2021/03/27 03:29:05;;;;;;;4.33;3.80;;;8.40;99.90;;;;;;5051736;28;20957;-84
2021/03/27 03:31:40;;;;;;;5.50;4.17;;;8.40;99.90;;;;;;5053273;28;20446;-87
2021/03/27 03:34:15;;;;;;;5.47;4.30;;;8.40;99.90;;;;;;5052838;28;20964;-87
2021/03/27 03:36:55;;;;;;;4.20;3.80;;;8.40;99.90;;;;;;5049963;28;20503;-85
2021/03/27 03:39:41;;;;;;;4.57;3.93;;;8.40;99.90;;;;;;5053151;28;20523;-85
2021/03/27 03:42:27;;;;;;;4.20;3.60;;;8.50;99.90;;;;;;5050207;28;20470;-85
2021/03/27 03:45:02;;;;;;;3.40;3.10;;;8.50;99.90;;;;;;5052721;28;20446;-87
2021/03/27 03:47:37;;;;;;;1.50;1.40;;;8.50;99.90;;;;;;5048914;28;20438;-88
2021/03/27 03:50:29;;;;;;;1.50;1.30;;;8.20;99.90;;;;;;5047267;28;20489;-86
2021/03/27 03:53:11;;;;;;;2.30;0.83;;;7.80;99.90;;;;;;5050909;28;20450;-90
2021/03/27 03:55:51;;;;;;;1.90;0.83;;;7.60;99.90;;;;;;5057219;28;20442;-89
2021/03/27 03:58:31;;;;;;;1.83;0.63;;;7.30;99.90;;;;;;5056087;28;20446;-92
2021/03/27 04:01:05;;;;;;;1.00;0.60;;;7.30;99.90;;;;;;5051330;28;20458;-89
2021/03/27 04:03:41;;;;;;;1.00;0.50;;;7.20;99.90;;;;;;5056886;28;20457;-89
2021/03/27 04:06:16;;;;;;;0.60;0.50;;;7.10;99.90;;;;;;5054158;28;20445;-90
2021/03/27 04:08:51;;;;;;;0.60;0.60;;;7.00;99.90;;;;;;5056502;28;20450;-92
2021/03/27 04:11:51;;;;;;;0.70;0.57;;;6.90;99.90;;;;;;5057275;28;20457;-87
2021/03/27 04:14:52;;;;;;;1.10;0.60;;;6.90;99.90;;;;;;5055996;28;20450;-94
2021/03/27 04:17:23;;;;;;;1.20;0.60;;;6.80;99.90;;;;;;5052649;28;20779;-85
2021/03/27 04:19:56;;;;;;;1.40;0.60;;;6.70;99.90;;;;;;5051043;28;20450;-84
2021/03/27 04:22:28;;;;;;;0.57;0.50;;;6.70;99.90;;;;;;5056478;28;20443;-87
2021/03/27 04:25:11;;;;;;;3.13;0.70;;;6.60;99.90;;;;;;5052806;28;20443;-85
2021/03/27 04:27:44;;;;;;;2.10;0.90;;;6.60;99.90;;;;;;5052323;28;20442;-93
2021/03/27 04:30:21;;;;;;;1.20;0.73;;;6.60;99.90;;;;;;5056446;28;20608;-87
2021/03/27 04:32:55;;;;;;;1.13;0.63;;;6.60;99.90;;;;;;5051158;28;20933;-90
2021/03/27 04:35:26;;;;;;;0.60;0.50;;;6.50;99.90;;;;;;5056692;28;20476;-85
2021/03/27 04:38:07;;;;;;;0.70;0.57;;;6.50;99.90;;;;;;5057333;28;20437;-86
2021/03/27 04:40:39;;;;;;;1.57;0.60;;;6.40;99.90;;;;;;5052594;28;20484;-85
2021/03/27 04:43:12;;;;;;;0.83;0.60;;;6.40;99.90;;;;;;5035473;28;20443;-89
2021/03/27 04:45:45;;;;;;;0.50;0.30;;;6.40;99.90;;;;;;5033621;28;20517;-84
2021/03/27 04:48:22;;;;;;;1.23;0.40;;;6.30;99.90;;;;;;5036322;28;20443;-84
2021/03/27 04:51:16;;;;;;;1.07;0.40;;;6.30;99.90;;;;;;5036211;28;20886;-85
2021/03/27 04:53:49;;;;;;;0.60;0.40;;;6.30;99.90;;;;;;5018219;28;20536;-84
2021/03/27 04:56:20;;;;;;;0.50;0.40;;;6.20;99.90;;;;;;5035949;28;20457;-84
2021/03/27 04:58:53;;;;;;;0.53;0.40;;;6.20;99.90;;;;;;5032091;28;20439;-89
2021/03/27 05:01:37;;;;;;;0.80;0.57;;;6.10;99.90;;;;;;5035710;28;20454;-87
2021/03/27 05:04:10;;;;;;;0.60;0.60;;;6.00;99.90;;;;;;5034553;28;20459;-84
2021/03/27 05:06:40;;;;;;;0.70;0.47;;;5.90;99.90;;;;;;5035482;28;20966;-85
2021/03/27 05:09:34;;;;;;;2.27;0.50;;;5.90;99.90;;;;;;5035744;28;20428;-84
2021/03/27 05:12:04;;;;;;;0.50;0.40;;;5.80;99.90;;;;;;5033330;28;20501;-84
2021/03/27 05:15:03;;;;;;;4.60;0.80;;;5.80;99.90;;;;;;5035266;28;20455;-91
2021/03/27 05:17:52;;;;;;;1.87;0.80;;;5.80;99.90;;;;;;5036447;28;20501;-85
2021/03/27 05:20:22;;;;;;;0.80;0.63;;;5.80;99.90;;;;;;5032733;28;20462;-89
2021/03/27 05:22:59;;;;;;;1.20;0.70;;;5.80;99.90;;;;;;5036000;28;20447;-87
2021/03/27 05:25:41;;;;;;;0.80;0.60;;;5.80;99.90;;;;;;5037343;28;20530;-91
2021/03/27 05:28:37;;;;;;;0.57;0.50;;;5.80;99.90;;;;;;5033611;28;20451;-88
2021/03/27 05:31:10;;;;;;;0.80;0.70;;;5.90;99.90;;;;;;5037064;28;20495;-89
2021/03/27 05:33:44;;;;;;;0.70;0.50;;;5.90;99.90;;;;;;5036861;28;20443;-84
2021/03/27 05:36:31;;;;;;;1.17;0.77;;;5.90;99.90;;;;;;5033706;28;20450;-84
2021/03/27 05:39:07;;;;;;;0.43;0.30;;;5.80;99.90;;;;;;5035659;28;20450;-84
2021/03/27 05:42:00;;;;;;;0.60;0.40;;;5.90;99.90;;;;;;5030042;28;20482;-89
2021/03/27 05:45:12;;;;;;;0.40;0.30;;;5.90;99.90;;;;;;5034329;28;20448;-91
2021/03/27 05:48:12;;;;;;;0.60;0.40;;;5.80;99.90;;;;;;5035167;28;20931;-90
2021/03/27 05:50:59;;;;;;;0.60;0.40;;;5.80;99.90;;;;;;5030834;28;20506;-88
2021/03/27 05:53:57;;;;;;;0.40;0.30;;;5.80;99.90;;;;;;5032216;28;20435;-84
2021/03/27 05:57:15;;;;;;;0.40;0.30;;;5.80;99.90;;;;;;5035183;28;20513;-86
2021/03/27 06:00:10;;;;;;;1.60;0.37;;;5.70;99.90;;;;;;5035172;28;20911;-87
2021/03/27 06:02:56;;;;;;;0.60;0.30;;;5.70;99.90;;;;;;5035351;28;20447;-91
2021/03/27 06:05:53;;;;;;;0.60;0.30;;;5.60;99.90;;;;;;5033000;28;20459;-88
2021/03/27 06:08:46;;;;;;;1.00;0.40;;;5.70;99.90;;;;;;5033163;28;20459;-93
2021/03/27 06:11:32;;;;;;;1.00;0.43;;;5.70;99.90;;;;;;5034745;28;20487;-84
2021/03/27 06:14:29;;;;;;;1.67;0.40;;;5.80;99.90;;;;;;5028348;28;20803;-85
2021/03/27 06:17:15;;;;;;;0.63;0.47;;;5.70;99.90;;;;;;5034117;28;20467;-91
2021/03/27 06:20:06;;;;;;;0.50;0.40;;;5.70;99.90;;;;;;5035454;28;20452;-86
2021/03/27 06:23:04;;;;;;;0.80;0.40;;;5.60;99.90;;;;;;5034997;28;20456;-89
2021/03/27 06:26:08;;;;;;;1.00;0.63;;;5.40;99.90;;;;;;5026856;28;20459;-88
2021/03/27 06:29:17;;;;;;;1.13;0.60;;;5.50;99.90;;;;;;5033209;28;20454;-93
2021/03/27 06:32:15;;;;;;;0.80;0.60;;;5.60;99.90;;;;;;5038483;28;20439;-85
2021/03/27 06:34:51;;;;;;;1.17;0.47;;;5.60;99.90;;;;;;5045874;28;20454;-84
2021/03/27 06:37:49;;;;;;;4.07;0.73;;;5.70;99.90;;;;;;5047240;28;20447;-86
2021/03/27 06:40:33;;;;;;;0.77;0.70;;;5.80;99.90;;;;;;5046609;28;20462;-84
2021/03/27 06:43:24;;;;;;;1.37;0.60;;;6.20;99.90;;;;;;5041536;28;20440;-84
2021/03/27 06:46:07;;;;;;;2.87;0.60;;;6.40;99.90;;;;;;5046586;28;20471;-86
2021/03/27 06:49:09;;;;;;;0.90;0.60;;;6.80;99.90;;;;;;5030604;28;20454;-86
2021/03/27 06:52:26;;;;;;;2.90;0.90;;;7.10;99.90;;;;;;5030681;28;20939;-92
2021/03/27 06:55:23;;;;;;;1.27;0.50;;;7.00;99.90;;;;;;4992888;28;20472;-89
2021/03/27 06:58:27;;;;;;;2.10;0.87;;;6.70;99.90;;;;;;5034089;28;20885;-84
2021/03/27 07:01:12;;;;;;;0.90;0.67;;;6.60;99.90;;;;;;5010444;28;20455;-89
2021/03/27 07:04:12;;;;;;;1.30;0.50;;;6.50;99.90;;;;;;5033750;28;20438;-89
2021/03/27 07:07:07;;;;;;;5.93;0.80;;;6.70;99.90;;;;;;5035159;28;20436;-88
2021/03/27 07:10:11;;;;;;;0.73;0.53;;;7.20;99.90;;;;;;5035383;28;20489;-88
2021/03/27 07:13:06;;;;;;;1.33;0.50;;;7.20;99.90;;;;;;5034690;28;20431;-90
2021/03/27 07:16:13;;;;;;;2.83;0.40;;;7.30;99.90;;;;;;5035142;28;20436;-85
2021/03/27 07:19:34;;;;;;;1.23;0.63;;;7.60;99.90;;;;;;5034821;28;20451;-88
2021/03/27 07:22:18;;;;;;;0.80;0.63;;;7.70;99.90;;;;;;5035000;28;20456;-87
2021/03/27 07:24:51;;;;;;;1.90;1.30;;;7.90;99.90;;;;;;5033544;28;20439;-85
2021/03/27 07:28:01;;;;;;;1.07;0.77;;;7.70;99.90;;;;;;5033332;28;20486;-86
2021/03/27 07:30:36;;;;;;;0.60;0.50;;;7.20;99.90;;;;;;5032028;28;20513;-87
2021/03/27 07:33:45;;;;;;;5.50;1.47;;;7.30;99.90;;;;;;4939695;29;20827;-89
2021/03/27 07:36:44;;;;;;;1.57;0.70;;;7.90;99.90;;;;;;4936910;29;20539;-88
2021/03/27 07:39:40;;;;;;;3.73;1.80;;;8.30;99.90;;;;;;4909902;29;20456;-91
2021/03/27 07:42:38;;;;;;;5.00;4.47;;;8.80;99.90;;;;;;4938222;29;20836;-91
2021/03/27 07:45:13;;;;;;;1.00;0.90;;;9.30;99.90;;;;;;4936989;29;20448;-90
2021/03/27 07:47:52;;;;;;;1.43;0.60;;;9.30;99.90;;;;;;4935491;29;20466;-87
2021/03/27 07:50:45;;;;;;;1.37;0.70;;;8.60;99.90;;;;;;4937686;29;20478;-90
2021/03/27 07:53:44;;;;;;;1.90;0.63;;;9.00;99.90;;;;;;4951710;29;20455;-86
2021/03/27 07:56:36;;;;;;;2.20;0.70;;;9.40;99.80;;;;;;4953908;29;20455;-86
2021/03/27 07:59:36;;;;;;;1.30;0.83;;;9.70;98.80;;;;;;5023364;28;20459;-89
2021/03/27 08:02:43;;;;;;;1.30;0.93;;;9.50;99.10;;;;;;5021213;28;20454;-85
2021/03/27 08:05:38;;;;;;;0.50;0.40;;;8.50;99.70;;;;;;5035708;28;20443;-91
2021/03/27 08:08:32;;;;;;;3.30;0.63;;;8.80;99.90;;;;;;5030560;28;20500;-85
2021/03/27 08:11:13;;;;;;;0.90;0.30;;;8.80;99.90;;;;;;4989714;28;20805;-84
2021/03/27 08:14:27;;;;;;;1.80;0.60;;;8.90;99.90;;;;;;4989811;28;20898;-87
2021/03/27 08:17:28;;;;;;;0.80;0.50;;;8.50;99.90;;;;;;4988767;28;20445;-89
2021/03/27 08:20:16;;;;;;;1.67;0.77;;;8.40;99.90;;;;;;4992633;28;20456;-88
2021/03/27 08:23:00;;;;;;;1.33;1.07;;;8.10;99.90;;;;;;4993291;28;20488;-89
2021/03/27 08:25:36;;;;;;;0.80;0.70;;;8.00;99.90;;;;;;4997821;28;20468;-85
2021/03/27 08:28:46;;;;;;;1.70;0.40;;;7.80;99.90;;;;;;5001994;28;20451;-90
2021/03/27 08:31:43;;;;;;;1.03;0.30;;;7.50;99.90;;;;;;5037330;28;20498;-85
2021/03/27 08:34:32;;;;;;;0.57;0.30;;;7.60;99.40;;;;;;5035264;28;20467;-87
2021/03/27 08:37:29;;;;;;;0.50;0.40;;;8.00;98.10;;;;;;5041287;28;20501;-85
2021/03/27 08:40:21;;;;;;;2.37;0.70;;;8.10;99.20;;;;;;5027343;28;20490;-86
2021/03/27 08:43:23;;;;;;;0.60;0.30;;;8.00;98.20;;;;;;5045615;28;21143;-85
2021/03/27 08:46:32;;;;;;;0.60;0.30;;;8.30;96.50;;;;;;5042638;28;20446;-86
2021/03/27 08:49:37;;;;;;;1.60;0.37;;;7.80;96.20;;;;;;5043215;28;20447;-85
2021/03/27 08:52:28;;;;;;;0.50;0.30;;;7.60;96.80;;;;;;5044310;28;20454;-86
2021/03/27 08:55:28;;;;;;;2.00;0.50;;;7.50;97.00;;;;;;5036894;28;20450;-92
2021/03/27 08:58:40;;;;;;;0.70;0.40;;;7.20;96.20;;;;;;5044782;28;20446;-88
2021/03/27 09:01:25;;;;;;;0.40;0.30;;;7.20;95.90;;;;;;5043976;28;20451;-89
2021/03/27 09:04:26;;;;;;;1.27;0.50;;;7.40;95.60;;;;;;5033581;28;20493;-90
2021/03/27 09:07:39;;;;;;;0.60;0.27;;;7.60;95.60;;;;;;5039125;28;20439;-91
2021/03/27 09:10:29;;;;;;;0.83;0.30;;;7.40;95.60;;;;;;4984857;28;20478;-87
2021/03/27 09:13:22;;;;;;;1.63;0.50;;;7.50;95.80;;;;;;5035297;28;20461;-88
2021/03/27 09:16:22;;;;;;;1.93;0.63;;;8.50;94.40;;;;;;5040181;28;20452;-92
2021/03/27 09:19:12;;;;;;;0.63;0.40;;;8.20;93.80;;;;;;5017787;28;20481;-87
2021/03/27 09:21:53;;;;;;;0.97;0.40;;;8.50;92.60;;;;;;5036973;28;20443;-88
2021/03/27 09:24:30;;;;;;;0.70;0.37;;;8.10;93.40;;;;;;5042797;28;20447;-85
2021/03/27 09:27:17;;;;;;;0.80;0.40;;;8.20;93.50;;;;;;5044474;28;20452;-86
2021/03/27 09:29:54;;;;;;;1.60;0.40;;;8.40;93.20;;;;;;5036438;28;20487;-90
2021/03/27 09:32:46;;;;;;;1.10;0.40;;;8.50;93.60;;;;;;5039845;28;20786;-85
2021/03/27 09:35:47;;;;;;;1.67;0.47;;;9.60;94.60;;;;;;5038245;28;20462;-91
2021/03/27 09:38:33;;;;;;;2.00;0.50;;;9.80;93.00;;;;;;5033961;28;20466;-90
2021/03/27 09:41:35;;;;;;;1.83;0.53;;;10.20;90.40;;;;;;5035636;28;20486;-89
2021/03/27 09:44:30;;;;;;;1.90;0.40;;;10.10;89.80;;;;;;5012577;28;20462;-91
2021/03/27 09:47:06;;;;;;;0.40;0.30;;;10.60;87.40;;;;;;5011462;28;20448;-87
2021/03/27 09:49:48;;;;;;;1.10;0.60;;;10.60;87.20;;;;;;5033147;28;20501;-93
2021/03/27 09:52:28;;;;;;;0.63;0.57;;;10.60;84.90;;;;;;5037441;28;20815;-91
2021/03/27 09:55:05;;;;;;;0.40;0.30;;;11.10;85.30;;;;;;5037534;28;20439;-82
2021/03/27 09:57:46;;;;;;;1.23;0.60;;;10.60;83.90;;;;;;5033767;28;20458;-85
2021/03/27 10:00:18;;;;;;;0.50;0.33;;;9.70;85.80;;;;;;5040152;28;20545;-86
2021/03/27 10:02:56;;;;;;;4.23;0.83;;;8.90;90.00;;;;;;5040893;28;20444;-90
2021/03/27 10:05:35;;;;;;;1.47;0.60;;;9.60;90.20;;;;;;5038136;28;20454;-90
2021/03/27 10:08:12;;;;;;;1.77;0.70;;;8.90;90.50;;;;;;5037575;28;20443;-86
2021/03/27 10:10:45;;;;;;;5.90;2.27;;;9.10;90.50;;;;;;5035566;28;20506;-88
2021/03/27 10:13:41;;;;;;;1.33;0.67;;;9.00;90.80;;;;;;5034035;23;20485;-83
2021/03/27 10:16:11;;;;;;;1.70;0.80;;;9.60;90.60;;;;;;5063786;28;20443;-84
2021/03/27 10:18:43;;;;;;;0.80;0.70;;;10.10;88.40;;;;;;5051166;28;21015;-91
2021/03/27 10:21:24;;;;;;;1.20;0.63;;;10.70;89.20;;;;;;5056783;28;20450;-87
2021/03/27 10:23:54;;;;;;;0.90;0.60;;;9.80;86.80;;;;;;5068815;28;20454;-91
2021/03/27 10:26:30;;;;;;;0.90;0.40;;;8.90;86.70;;;;;;5078961;28;20445;-86
2021/03/27 10:29:08;;;;;;;1.77;0.47;;;8.30;88.70;;;;;;5081707;28;20445;-88
2021/03/27 10:31:47;;;;;;;0.80;0.50;;;8.20;90.30;;;;;;5078738;28;20493;-91
2021/03/27 10:34:29;;;;;;;2.13;0.50;;;9.20;93.90;;;;;;5044888;28;20499;-90
2021/03/27 10:37:02;;;;;;;6.33;0.60;;;9.20;86.90;;;;;;5040122;28;20467;-86
2021/03/27 10:40:05;;;;;;;0.60;0.30;;;9.30;87.80;;;;;;5041012;28;20817;-88
2021/03/27 10:42:47;;;;;;;0.70;0.53;;;10.10;85.10;;;;;;5036242;28;20973;-86
2021/03/27 10:45:34;;;;;;;2.97;1.33;;;9.50;86.00;;;;;;5032272;28;20443;-85
2021/03/27 10:48:29;;;;;;;1.00;0.70;;;9.50;86.60;;;;;;5039333;28;20881;-85
2021/03/27 10:51:19;;;;;;;0.40;0.30;;;9.20;85.90;;;;;;5038863;28;20495;-84
2021/03/27 10:53:57;;;;;;;1.80;0.63;;;8.80;86.40;;;;;;5044263;28;20474;-90
2021/03/27 10:56:37;;;;;;;1.30;0.80;;;8.60;87.30;;;;;;5042498;28;20447;-88
2021/03/27 10:59:11;;;;;;;0.80;0.50;;;8.70;86.30;;;;;;5034958;28;20447;-88
2021/03/27 11:02:23;;;;;;;1.50;0.77;;;9.10;85.10;;;;;;5045665;28;20513;-84
2021/03/27 11:05:41;;;;;;;0.70;0.40;;;9.20;86.40;;;;;;5040009;28;20447;-82
2021/03/27 11:08:41;;;;;;;1.37;0.67;;;9.10;86.50;;;;;;5003010;28;20445;-84
2021/03/27 11:11:20;;;;;;;0.63;0.57;;;9.30;86.80;;;;;;5003242;28;20492;-88
2021/03/27 11:14:24;;;;;;;2.33;1.10;;;9.00;86.40;;;;;;5002903;28;20487;-89
2021/03/27 11:17:17;;;;;;;0.50;0.40;;;8.80;87.40;;;;;;5006097;28;20822;-84
2021/03/27 11:20:30;;;;;;;0.40;0.30;;;9.10;87.20;;;;;;5005869;28;20452;-86
2021/03/27 11:23:38;;;;;;;3.03;1.50;;;9.00;86.60;;;;;;5011201;28;20426;-85
2021/03/27 11:26:30;;;;;;;2.10;0.57;;;9.20;87.30;;;;;;5007884;28;20532;-85
2021/03/27 11:29:00;;;;;;;1.90;0.40;;;10.20;85.90;;;;;;5006011;28;20865;-91
2021/03/27 11:31:42;;;;;;;0.63;0.40;;;10.50;82.80;;;;;;5003802;28;20515;-90
2021/03/27 11:34:19;;;;;;;1.60;0.60;;;10.30;84.10;;;;;;5008699;28;20462;-85
2021/03/27 11:36:51;;;;;;;1.13;0.40;;;10.60;82.80;;;;;;5008151;28;20925;-84
2021/03/27 11:39:26;;;;;;;1.60;0.70;;;10.60;79.40;;;;;;5002917;28;20453;-85
2021/03/27 11:42:05;;;;;;;1.43;0.80;;;10.40;80.10;;;;;;5000550;28;20448;-85
2021/03/27 11:44:55;;;;;;;1.63;0.43;;;9.90;81.90;;;;;;4995421;28;20465;-85
2021/03/27 11:47:31;;;;;;;0.90;0.53;;;9.80;85.00;;;;;;5014925;28;20458;-85
2021/03/27 11:50:08;;;;;;;1.93;0.50;;;9.70;84.90;;;;;;5038254;28;20483;-85
2021/03/27 11:52:42;;;;;;;0.50;0.30;;;9.60;85.80;;;;;;5035782;28;20444;-84
2021/03/27 11:55:20;;;;;;;2.27;0.67;;;9.40;84.60;;;;;;5046396;28;20519;-84
2021/03/27 11:57:51;;;;;;;1.87;0.90;;;9.30;86.00;;;;;;5043237;28;20454;-85
2021/03/27 12:00:50;;;;;;;1.00;0.50;;;9.20;87.40;;;;;;5061496;23;20494;-85
2021/03/27 12:03:50;;;;;;;3.77;0.70;;;9.20;87.60;;;;;;5068408;23;20555;-85
2021/03/27 12:06:26;;;;;;;1.07;0.50;;;8.90;88.30;;;;;;5048353;28;20506;-90
2021/03/27 12:09:09;;;;;;;1.80;0.70;;;8.80;88.00;;;;;;5056914;28;20461;-85
2021/03/27 12:12:22;;;;;;;1.40;0.80;;;8.90;89.40;;;;;;5062450;28;21023;-84
2021/03/27 12:14:57;;;;;;;1.60;0.70;;;9.00;87.60;;;;;;5041588;28;20449;-85
2021/03/27 12:17:35;;;;;;;1.13;0.80;;;8.80;87.10;;;;;;5062935;28;20457;-85
2021/03/27 12:20:30;;;;;;;1.17;0.60;;;9.40;89.20;;;;;;5063309;28;20509;-85
2021/03/27 12:23:07;;;;;;;2.00;0.50;;;9.90;86.60;;;;;;5063769;28;20477;-85
2021/03/27 12:25:48;;;;;;;0.80;0.50;;;9.70;84.40;;;;;;5057038;28;20442;-85
2021/03/27 12:28:24;;;;;;;2.00;0.60;;;9.60;85.70;;;;;;5064501;28;20465;-85
2021/03/27 12:30:56;;;;;;;1.17;0.60;;;9.50;87.80;;;;;;5065338;28;20544;-85
2021/03/27 12:33:36;;;;;;;1.53;0.80;;;9.40;86.90;;;;;;5064612;28;20446;-91
2021/03/27 12:36:10;;;;;;;1.90;0.80;;;9.30;87.20;;;;;;5058010;28;20466;-89
2021/03/27 12:39:01;;;;;;;0.67;0.60;;;9.30;87.10;;;;;;5069746;23;20496;-87
2021/03/27 12:41:31;;;;;;;1.00;0.30;;;9.10;87.10;;;;;;5063270;28;20442;-86
2021/03/27 12:44:02;;;;;;;1.77;0.67;;;9.00;87.10;;;;;;5062071;28;20439;-86
2021/03/27 12:46:46;;;;;;;3.10;0.87;;;9.00;87.50;;;;;;5058987;28;20446;-86
2021/03/27 12:49:34;;;;;;;2.07;0.70;;;9.30;88.60;;;;;;5063271;28;20934;-85
2021/03/27 12:52:17;;;;;;;1.70;0.60;;;9.00;86.80;;;;;;5061076;28;20482;-89
2021/03/27 12:54:47;;;;;;;0.97;0.57;;;9.10;88.10;;;;;;5060260;28;20446;-91
2021/03/27 12:57:42;;;;;;;3.13;0.70;;;9.20;86.70;;;;;;5058708;28;20447;-89
2021/03/27 13:00:53;;;;;;;1.97;0.70;;;9.20;86.70;;;;;;5059756;28;20450;-89
2021/03/27 13:03:41;;;;;;;1.80;0.50;;;9.70;84.90;;;;;;5063586;28;20484;-86
2021/03/27 13:06:34;;;;;;;1.20;0.50;;;10.60;80.00;;;;;;5062256;28;20447;-89
2021/03/27 13:09:45;;;;;;;2.33;1.50;;;11.20;79.60;;;;;;5061256;28;20439;-92
2021/03/27 13:12:18;;;;;;;1.33;0.87;;;11.90;79.50;;;;;;5062421;28;20442;-87
2021/03/27 13:15:26;;;;;;;1.50;0.80;;;11.00;75.90;;;;;;5054813;28;20439;-86
2021/03/27 13:18:31;;;;;;;0.90;0.47;;;10.30;79.60;;;;;;5061401;28;20445;-88
2021/03/27 13:21:14;;;;;;;6.70;1.03;;;9.70;80.10;;;;;;5057025;28;20458;-86
2021/03/27 13:23:45;;;;;;;1.03;0.50;;;10.70;79.20;;;;;;5058028;28;20454;-86
2021/03/27 13:26:19;;;;;;;1.40;0.50;;;10.80;77.50;;;;;;5058048;28;20504;-88
2021/03/27 13:28:54;;;;;;;3.80;0.60;;;10.80;78.10;;;;;;5064477;28;20773;-90
2021/03/27 13:31:24;;;;;;;1.23;0.87;;;10.00;86.10;;;;;;5077036;23;20500;-89
2021/03/27 13:33:55;;;;;;;1.60;0.60;;;9.90;80.70;;;;;;5036884;28;20462;-85
2021/03/27 13:36:33;;;;;;;0.87;0.67;;;9.90;81.30;;;;;;5062232;28;20464;-85
2021/03/27 13:39:13;;;;;;;2.03;0.90;;;10.90;78.80;;;;;;5064206;28;20454;-87
2021/03/27 13:42:17;;;;;;;2.40;1.57;;;12.50;78.90;;;;;;5067682;28;20450;-85
2021/03/27 13:44:54;;;;;;;5.90;2.50;;;11.80;78.10;;;;;;5059029;28;20446;-91
2021/03/27 13:47:41;;;;;;;1.00;0.80;;;11.50;77.10;;;;;;5055569;28;20445;-90
2021/03/27 13:50:22;;;;;;;1.43;0.93;;;11.50;74.10;;;;;;5065063;28;20512;-91
2021/03/27 13:53:02;;;;;;;0.87;0.70;;;11.60;75.10;;;;;;5060537;28;20454;-93
2021/03/27 13:55:35;;;;;;;3.20;0.90;;;11.70;77.20;;;;;;5058470;28;20450;-85
2021/03/27 13:58:06;;;;;;;3.17;1.07;;;12.20;76.90;;;;;;5056772;28;20799;-88
2021/03/27 14:00:38;;;;;;;1.20;0.60;;;12.10;75.80;;;;;;5059193;28;20450;-87
2021/03/27 14:03:23;;;;;;;1.27;0.50;;;11.80;75.70;;;;;;5058604;28;20446;-91
2021/03/27 14:06:03;;;;;;;1.33;0.60;;;11.60;76.10;;;;;;5060483;28;20449;-88
2021/03/27 14:08:39;;;;;;;1.23;0.60;;;11.60;75.10;;;;;;5062555;28;21154;-87
2021/03/27 14:11:13;;;;;;;4.40;0.60;;;11.80;74.40;;;;;;5059823;28;20573;-85
2021/03/27 14:13:42;;;;;;;4.23;1.10;;;11.60;75.10;;;;;;5054651;28;20500;-86
2021/03/27 14:16:18;;;;;;;3.10;0.60;;;11.50;77.20;;;;;;5059408;28;20930;-85
2021/03/27 14:18:57;;;;;;;3.53;0.90;;;11.50;77.50;;;;;;5058052;28;20457;-89
2021/03/27 14:21:36;;;;;;;2.77;0.50;;;11.50;76.90;;;;;;5060816;28;20450;-84